Tiempo atmosférico en la estación meteorológica de Planoles, Girona (1149 m.)



Fecha
DESCASC
Temp. máxima en grados centígrados (hora)
DESCASC
Temp. mínima en grados centígrados (hora)
DESCASC
Temp. media en grados centígrados
DESCASC
Racha de viento máxima en m/sg (hora)
DESCASC
Velocidad máxima media en intervalos de 10 minutos(hora)
DESCASC
Precipitaciones diarias en mm
DESCASC
Precipitaciones de 00:00 a 06:00 en mm
DESCASC
Precipitaciones de 06:00 a 12:00 en mm
DESCASC
Precipitaciones de 12:00 a 18:00 en mm
DESCASC
Precipitaciones de 18:00 a 24:00 en mm
DESCASC
25-04-2019 12.3 (16:10) 2.8 (23:59) 7.6 17.22 (04:20) 6.94 (11:40) 22.8 6.8 8.4 6.6 1
24-04-2019 10.5 (17:20) 4.7 (07:40) 7.6 12.22 (19:20) 6.39 (12:40) 3.6 3.6 0 0 0
23-04-2019 12.3 (12:40) 7.1 (07:50) 9.7 10.56 (17:30) 4.72 (17:30) 5.2 0 0.4 4.6 0.2
22-04-2019 13.6 (14:50) 7.5 (00:00) 10.6 13.89 (12:40) 6.39 (12:20) 0.4 0 0.4 0 0
21-04-2019 12.4 (15:50) 3.8 (00:00) 8.1 13.61 (10:30) 5.28 (05:40) 1.4 1.2 0.2 0 0
20-04-2019 14.8 (11:40) 4.3 (00:00) 9.6 11.11 (13:00) 5 (12:00) 3 0 0 0 3
19-04-2019 16.6 (15:00) 5.7 (00:00) 11.2 12.22 (10:00) 4.72 (10:00) 0 0 0 0 0
18-04-2019 14.8 (17:40) 6 (00:00) 10.4 7.78 (12:20) 4.44 (12:00) 0 0 0 0 0
17-04-2019 17 (17:50) 2.9 (00:00) 10 8.06 (14:10) 5 (14:10) 0 0 0 0 0
16-04-2019 11 (17:40) 4.8 (00:00) 7.9 5.83 (04:10) 2.5 (02:40) 4.8 4.8 0 0 0
15-04-2019 15.4 (14:30) 3.5 (00:00) 9.4 8.06 (13:40) 5 (12:50) 0 0 0 0 0
14-04-2019 15 (17:20) 2.6 (00:00) 8.8 10.28 (10:30) 4.44 (10:40) 0 0 0 0 0
13-04-2019 16.8 (16:40) 1.2 (00:00) 9 11.67 (03:10) 6.11 (03:00) 0 0 0 0 0
12-04-2019 13.9 (17:10) 3.4 (00:00) 8.6 13.61 (05:40) 7.78 (11:10) 0 0 0 0 0
11-04-2019 9.8 (16:20) 3.6 (00:00) 6.7 14.17 (11:20) 7.78 (11:20) 0.2 0.2 0 0 0
10-04-2019 10.9 (16:50) -0.8 (-00:0) 5 12.5 (15:00) 7.22 (14:50) 0.4 0.2 0 0 0.2
09-04-2019 10.8 (11:50) 1.2 (00:00) 6 7.5 (05:40) 3.61 (12:20) 9.2 3.2 1.4 3.4 1.2
08-04-2019 13.6 (13:10) 0.1 (00:00) 6.9 10 (09:50) 5 (09:50) 3.6 0 0 0 3.6
07-04-2019 10.4 (15:40) -1 (-00:0) 4.7 7.78 (15:10) 4.17 (17:20) 0.2 0 0.2 0 0
06-04-2019 7.6 (13:40) 0.4 (00:00) 4 12.78 (14:20) 6.39 (14:20) 8.6 8.4 0 0 0.2
05-04-2019 8.8 (14:00) -1.8 (-00:0) 3.5 9.17 (11:00) 4.72 (10:50) 8 0 0 0 8
04-04-2019 8.5 (16:20) -1.9 (-00:0) 3.3 9.44 (11:10) 5 (12:20) 1.2 1.2 0 0 0
03-04-2019 8.6 (12:30) 2.1 (00:00) 5.4 7.5 (13:00) 4.17 (13:40) 14 0.6 9 1.2 3.2
02-04-2019 11.7 (12:20) 2.7 (00:00) 7.2 6.67 (14:00) 4.17 (12:40) 15.4 0 0 14.8 0.6
01-04-2019 16 (14:30) 2.5 (00:00) 9.3 8.33 (14:30) 4.72 (14:50) 3.2 0 0 3 0.2
31-03-2019 14.4 (13:10) 0.7 (00:00) 7.5 7.78 (14:40) 5 (15:50) 0 0 0 0 0
30-03-2019 14.6 (15:00) -1.3 (-00:0) 6.7 8.06 (13:00) 4.72 (12:10) 0 0 0 0 0
29-03-2019 10.2 (14:40) 0.5 (00:00) 5.3 6.11 (15:20) 3.61 (15:20) 0 0 0 0 0
28-03-2019 14.8 (14:20) -0.8 (-00:0) 7 8.33 (12:00) 4.44 (12:20) 0 0 0 0 0
27-03-2019 15.3 (14:30) -1.2 (-00:0) 7.1 8.33 (17:00) 4.44 (14:10) 0 0 0 0 0

Gráficas

Temp. máximas Temp. mínimas Temp. medias Precipitaciones Rachas de viento máximas Velocidades máximas media en intervalos de 10 minutos

Datos horarios

Fecha y hora oficial Temperatura (ºC) Velocidad del viento (km/h) Dirección del viento Racha (km/h) Dirección de racha Precipitación (mm) Presión (hPa) Tendencia (hPa) Humedad (%)
2019-04-25 23:00:00 3.8 7 Oeste 19 Noroeste 0 -- -- 81
2019-04-25 22:00:00 4.3 0 Calma 7 Este 0 -- -- 94
2019-04-25 21:00:00 5.6 4 Noroeste 8 Este 0 -- -- 94
2019-04-25 20:00:00 6.5 3 Este 22 Oeste 0.4 -- -- 90
2019-04-25 19:00:00 7.9 17 Oeste 39 Oeste 0.6 -- -- 79
2019-04-25 18:00:00 8.3 3 Sur 30 Oeste 1.4 -- -- 84
2019-04-25 17:00:00 10.1 14 Sudoeste 34 Oeste 0.2 -- -- 66
2019-04-25 16:00:00 12.2 19 Oeste 31 Oeste 0 -- -- 58
2019-04-25 15:00:00 9 5 Sudeste 15 Este 0.2 -- -- 79
2019-04-25 14:00:00 7.4 4 Sudoeste 17 Noroeste 2.2 -- -- 83
2019-04-25 13:00:00 6.3 10 Oeste 39 Oeste 2.6 -- -- 84
2019-04-25 12:00:00 8.7 21 Sudoeste 46 Oeste 0.6 -- -- 78
2019-04-25 11:00:00 9.9 17 Oeste 41 Oeste 0.4 -- -- 78
2019-04-25 10:00:00 8.8 8 Noroeste 35 Noroeste 1.8 -- -- 86
2019-04-25 09:00:00 8.6 12 Noroeste 27 Norte 3.4 -- -- 87
2019-04-25 08:00:00 8.5 8 Noroeste 46 Noroeste 1.6 -- -- 85
2019-04-25 07:00:00 8.3 17 Noroeste 44 Noroeste 0.6 -- -- 88
2019-04-25 06:00:00 8.2 12 Noroeste 46 Oeste 0.4 -- -- 88
2019-04-25 05:00:00 8 12 Oeste 62 Noroeste 0.6 -- -- 87
2019-04-25 04:00:00 7.6 12 Noroeste 44 Oeste 0.8 -- -- 87
2019-04-25 03:00:00 5.8 8 Norte 20 Este 2.6 -- -- 93
2019-04-25 02:00:00 5.5 5 Este 22 Oeste 2.4 -- -- 91
2019-04-25 01:00:00 6.6 13 Noroeste 35 Noroeste 0 -- -- 76
2019-04-25 00:00:00 6.6 5 Este 29 Noroeste 0 -- -- 75
2019-04-24 23:00:00 6.8 11 Oeste 27 Oeste 0 -- -- 71
2019-04-24 22:00:00 7.1 5 Sudoeste 25 Noroeste 0 -- -- 71
2019-04-24 21:00:00 7.7 13 Oeste 27 Oeste 0 -- -- 70
2019-04-24 20:00:00 8.3 12 Oeste 44 Oeste 0 -- -- 68
2019-04-24 19:00:00 8.7 18 Oeste 32 Noroeste 0 -- -- 63
2019-04-24 18:00:00 9.2 14 Oeste 33 Sudoeste 0 -- -- 58
2019-04-24 17:00:00 9.1 14 Oeste 35 Noroeste 0 -- -- 59
2019-04-24 16:00:00 9.3 19 Oeste 40 Oeste 0 -- -- 50
2019-04-24 15:00:00 9.3 15 Oeste 39 Oeste 0 -- -- 48
2019-04-24 14:00:00 8.8 13 Sudoeste 41 Noroeste 0 -- -- 50
2019-04-24 13:00:00 8.6 9 Sudoeste 39 Oeste 0 -- -- 56
2019-04-24 12:00:00 7.5 15 Noroeste 44 Noroeste 0 -- -- 59
2019-04-24 11:00:00 7.2 12 Oeste 36 Noroeste 0 -- -- 61
2019-04-24 10:00:00 7.7 8 Oeste 19 Oeste 0 -- -- 66
2019-04-24 09:00:00 5.3 2 Este 7 Este 0 -- -- 91
2019-04-24 08:00:00 4.7 2 Este 14 Noroeste 0 -- -- 92
2019-04-24 07:00:00 5.1 6 Noroeste 13 Oeste 0 -- -- 83
2019-04-24 06:00:00 5.6 8 Noroeste 19 Oeste 0.6 -- -- 81
2019-04-24 05:00:00 5.8 13 Oeste 30 Este 3 -- -- 83
2019-04-24 04:00:00 7.3 8 Este 31 Este 0 -- -- 83
2019-04-24 03:00:00 7.9 9 Este 28 Norte 0 -- -- 78
2019-04-24 02:00:00 8.5 13 Noroeste 29 Noroeste 0 -- -- 70
2019-04-24 01:00:00 8.8 8 Sudoeste 24 Noroeste 0 -- -- 72
2019-04-24 00:00:00 9.3 11 Oeste 35 Sur 0 -- -- 72
2019-04-23 23:00:00 9.2 14 Oeste 26 Sudoeste 0 -- -- 75
2019-04-23 22:00:00 9.3 8 Sudoeste 32 Oeste 0 -- -- 70
2019-04-23 21:00:00 9.9 8 Noroeste 32 Sudoeste 0.2 -- -- 72
2019-04-23 20:00:00 9.2 5 Norte 16 Nordeste 0 -- -- 86
2019-04-23 19:00:00 10.5 5 Sudeste 15 Oeste 0 -- -- 82
2019-04-23 18:00:00 9.7 5 Norte 38 Noroeste 3.6 -- -- 83
2019-04-23 17:00:00 11.7 2 Noroeste 15 Noroeste 0 -- -- 77
2019-04-23 16:00:00 11.5 4 Este 16 Este 0 -- -- 83
2019-04-23 15:00:00 10.8 6 Sudeste 14 Este 0 -- -- 85
2019-04-23 14:00:00 10.5 3 Sudeste 16 Sudoeste 1 -- -- 83
2019-04-23 13:00:00 12.2 5 Sudoeste 17 Sudoeste 0 -- -- 67
2019-04-23 12:00:00 11.4 8 Este 18 Este 0 -- -- 72
2019-04-23 11:00:00 11.6 3 Oeste 7 Oeste 0 -- -- 73
2019-04-23 10:00:00 10.7 0 Calma 4 Oeste 0 -- -- 75
2019-04-23 09:00:00 8.2 0 Calma 5 Noroeste 0 -- -- 93
2019-04-23 08:00:00 7.1 3 Noroeste 9 Noroeste 0 -- -- 94
2019-04-23 07:00:00 7.2 5 Noroeste 9 Oeste 0.4 -- -- 92
2019-04-23 06:00:00 7.7 2 Oeste 8 Norte 0 -- -- 83
2019-04-23 05:00:00 7.9 2 Sudoeste 9 Noroeste 0 -- -- 81
2019-04-23 04:00:00 8 2 Oeste 8 Oeste 0 -- -- 80
2019-04-23 03:00:00 8.2 2 Oeste 12 Noroeste 0 -- -- 79
2019-04-23 02:00:00 8.4 5 Noroeste 9 Noroeste 0 -- -- 75
2019-04-23 01:00:00 8.6 2 Oeste 12 Noroeste 0 -- -- 74
2019-04-23 00:00:00 8.4 6 Noroeste 13 Oeste 0 -- -- 74
2019-04-22 23:00:00 9 3 Norte 17 Sudeste 0 -- -- 69
2019-04-22 22:00:00 9 6 Oeste 15 Oeste 0 -- -- 68
2019-04-22 21:00:00 9.3 5 Sur 22 Sudeste 0 -- -- 65
2019-04-22 20:00:00 10.2 9 Sudeste 37 Este 0 -- -- 62
2019-04-22 19:00:00 11.7 18 Sudeste 44 Este 0 -- -- 60
2019-04-22 18:00:00 12.2 14 Sudeste 37 Sudeste 0 -- -- 59
2019-04-22 17:00:00 12.9 15 Sudeste 33 Este 0 -- -- 53
2019-04-22 16:00:00 11.6 9 Sudeste 42 Sudeste 0 -- -- 59
2019-04-22 15:00:00 13.5 16 Sudeste 36 Sudeste 0 -- -- 53
2019-04-22 14:00:00 10.8 16 Sudeste 43 Sudeste 0 -- -- 62
2019-04-22 13:00:00 10.8 15 Este 50 Este 0 -- -- 63
2019-04-22 12:00:00 12.4 12 Sudeste 31 Este 0 -- -- 56
2019-04-22 11:00:00 8.4 4 Noroeste 38 Este 0.4 -- -- 70
2019-04-22 10:00:00 8.3 13 Sudeste 32 Sudeste 0 -- -- 64
2019-04-22 09:00:00 9.2 11 Sudeste 41 Este 0 -- -- 54
2019-04-22 08:00:00 9.6 15 Sudeste 47 Sudeste 0 -- -- 50
2019-04-22 07:00:00 9.8 18 Sudeste 41 Este 0 -- -- 51
2019-04-22 06:00:00 9.9 19 Este 46 Sudeste 0 -- -- 54
2019-04-22 05:00:00 10 16 Sudeste 40 Este 0 -- -- 55
2019-04-22 04:00:00 10.2 12 Sudeste 37 Sudeste 0 -- -- 49
2019-04-22 03:00:00 7.9 5 Sudoeste 20 Noroeste 0 -- -- 58
2019-04-22 02:00:00 7.6 12 Noroeste 21 Noroeste 0 -- -- 60
2019-04-22 01:00:00 9.1 5 Sur 24 Sudeste 0 -- -- 52
2019-04-22 00:00:00 9 10 Sudeste 28 Sudeste 0 -- -- 56
2019-04-21 23:00:00 9.7 10 Este 39 Sudeste 0 -- -- 48
2019-04-21 22:00:00 8.9 8 Este 41 Este 0 -- -- 54
2019-04-21 21:00:00 9.8 13 Sudeste 33 Sudeste 0 -- -- 48
2019-04-21 20:00:00 11 16 Este 35 Sudeste 0 -- -- 44
2019-04-21 19:00:00 10.7 9 Sudeste 26 Sudeste 0 -- -- 52
2019-04-21 18:00:00 10.5 10 Sudeste 29 Sudeste 0 -- -- 57
2019-04-21 17:00:00 11.2 10 Sudeste 30 Sudeste 0 -- -- 51
2019-04-21 16:00:00 12.3 14 Sudeste 33 Este 0 -- -- 49
2019-04-21 15:00:00 9.8 11 Este 32 Este 0 -- -- 56
2019-04-21 14:00:00 8.2 8 Sudeste 45 Este 0 -- -- 66
2019-04-21 13:00:00 8.2 14 Sudeste 45 Este 0 -- -- 64
2019-04-21 12:00:00 8.5 14 Sudeste 49 Sudeste 0 -- -- 63
2019-04-21 11:00:00 9.5 15 Sudeste 49 Este 0 -- -- 51
2019-04-21 10:00:00 8.9 17 Este 40 Este 0 -- -- 52
2019-04-21 09:00:00 6.9 13 Sudeste 40 Este 0 -- -- 67
2019-04-21 08:00:00 6.3 10 Sudeste 33 Sudeste 0 -- -- 73
2019-04-21 07:00:00 7.1 9 Sudeste 39 Sudeste 0.2 -- -- 67
2019-04-21 06:00:00 6.6 10 Sudeste 43 Este 0.2 -- -- 79
2019-04-21 05:00:00 7.7 11 Este 39 Este 0 -- -- 67
2019-04-21 04:00:00 6.9 10 Este 32 Este 0.2 -- -- 74
2019-04-21 03:00:00 5.8 6 Este 31 Nordeste 0.4 -- -- 85
2019-04-21 02:00:00 4.2 10 Noroeste 23 Noroeste 0.2 -- -- 88
2019-04-21 01:00:00 3.8 12 Noroeste 16 Noroeste 0.2 -- -- 90
2019-04-21 00:00:00 4.3 9 Oeste 15 Noroeste 1.6 -- -- 87
2019-04-20 23:00:00 6.1 2 Este 39 Sudeste 1.4 -- -- 82
2019-04-20 22:00:00 9.2 13 Sudeste 31 Este 0 -- -- 58
2019-04-20 21:00:00 10.2 12 Sudeste 26 Este 0 -- -- 37
2019-04-20 20:00:00 9.7 4 Este 25 Este 0 -- -- 51
2019-04-20 19:00:00 10.2 9 Sudeste 26 Sudeste 0 -- -- 58
2019-04-20 18:00:00 11.8 10 Este 24 Este 0 -- -- 41
2019-04-20 17:00:00 11.7 9 Sudeste 31 Sudeste 0 -- -- 48
2019-04-20 16:00:00 12.5 12 Sudeste 35 Este 0 -- -- 47
2019-04-20 15:00:00 12.8 15 Sudeste 40 Este 0 -- -- 47
2019-04-20 14:00:00 13.8 14 Sudeste 40 Este 0 -- -- 46
2019-04-20 13:00:00 14 14 Sudeste 40 Este 0 -- -- 43
2019-04-20 12:00:00 14.5 18 Sudeste 38 Sur 0 -- -- 36
2019-04-20 11:00:00 13.5 15 Sudeste 33 Sudeste 0 -- -- 35
2019-04-20 10:00:00 13 12 Sudeste 27 Sudeste 0 -- -- 36
2019-04-20 09:00:00 8.1 3 Noroeste 14 Oeste 0 -- -- 56
2019-04-20 08:00:00 5.3 10 Noroeste 21 Noroeste 0 -- -- 61
2019-04-20 07:00:00 4.7 9 Noroeste 19 Noroeste 0 -- -- 61
2019-04-20 06:00:00 5.3 10 Noroeste 18 Noroeste 0 -- -- 56
2019-04-20 05:00:00 5.7 13 Noroeste 18 Noroeste 0 -- -- 52
2019-04-20 04:00:00 5.5 7 Noroeste 18 Noroeste 0 -- -- 54
2019-04-20 03:00:00 5.6 9 Noroeste 18 Noroeste 0 -- -- 55
2019-04-20 02:00:00 6.2 8 Noroeste 17 Oeste 0 -- -- 54
2019-04-20 01:00:00 6.6 8 Noroeste 18 Noroeste 0 -- -- 55
2019-04-20 00:00:00 7.1 13 Noroeste 19 Noroeste 0 -- -- 54
2019-04-19 23:00:00 8 8 Noroeste 17 Noroeste 0 -- -- 54
2019-04-19 22:00:00 9.2 6 Noroeste 12 Noroeste 0 -- -- 52
2019-04-19 21:00:00 11.2 0 Calma 11 Sudeste 0 -- -- 43
2019-04-19 20:00:00 12.9 5 Sudeste 17 Sudeste 0 -- -- 37
2019-04-19 19:00:00 14.4 6 Sudeste 22 Este 0 -- -- 35
2019-04-19 18:00:00 15.5 11 Este 27 Este 0 -- -- 34
2019-04-19 17:00:00 14.4 8 Este 29 Sudeste 0 -- -- 37
2019-04-19 16:00:00 15.4 13 Sudeste 28 Este 0 -- -- 35
2019-04-19 15:00:00 16.6 12 Sudeste 31 Este 0 -- -- 36
2019-04-19 14:00:00 16.1 12 Sudeste 32 Sudeste 0 -- -- 38
2019-04-19 13:00:00 15.6 15 Este 31 Este 0 -- -- 36
2019-04-19 12:00:00 14.8 13 Sudeste 35 Este 0 -- -- 35
2019-04-19 11:00:00 12.7 14 Sudeste 40 Sur 0 -- -- 39
2019-04-19 10:00:00 11.8 17 Sudeste 44 Sur 0 -- -- 41
2019-04-19 09:00:00 11.5 12 Sudeste 35 Sudeste 0 -- -- 43
2019-04-19 08:00:00 10.7 10 Sudeste 34 Este 0 -- -- 43
2019-04-19 07:00:00 10.4 9 Sudeste 30 Este 0 -- -- 44
2019-04-19 06:00:00 9.6 8 Sudeste 22 Este 0 -- -- 45
2019-04-19 05:00:00 8 3 Norte 13 Sudeste 0 -- -- 55
2019-04-19 04:00:00 7.5 4 Este 8 Nordeste 0 -- -- 63
2019-04-19 03:00:00 7.7 4 Sudeste 12 Este 0 -- -- 63
2019-04-19 02:00:00 6.6 4 Sudeste 15 Este 0 -- -- 66
2019-04-19 01:00:00 6 4 Noroeste 10 Norte 0 -- -- 66
2019-04-19 00:00:00 6.6 4 Noroeste 13 Noroeste 0 -- -- 63
2019-04-18 23:00:00 7.4 4 Noroeste 9 Sudeste 0 -- -- 59
2019-04-18 22:00:00 8.5 0 Calma 6 Noroeste 0 -- -- 65
2019-04-18 21:00:00 10.1 2 Noroeste 17 Este 0 -- -- 60
2019-04-18 20:00:00 11.4 0 Calma 17 Este 0 -- -- 59
2019-04-18 19:00:00 12.1 9 Sudeste 27 Este 0 -- -- 56
2019-04-18 18:00:00 14.5 12 Este 23 Nordeste 0 -- -- 52
2019-04-18 17:00:00 14.4 10 Sudeste 21 Este 0 -- -- 56
2019-04-18 16:00:00 14.2 12 Este 25 Este 0 -- -- 54
2019-04-18 15:00:00 14.3 12 Este 21 Este 0 -- -- 55
2019-04-18 14:00:00 14.1 8 Este 16 Este 0 -- -- 53
2019-04-18 13:00:00 13.6 2 Nordeste 28 Este 0 -- -- 55
2019-04-18 12:00:00 13.3 16 Este 28 Este 0 -- -- 57
2019-04-18 11:00:00 11.7 7 Este 15 Sudeste 0 -- -- 66
2019-04-18 10:00:00 8.8 0 Calma 6 Este 0 -- -- 78
2019-04-18 09:00:00 7.5 3 Norte 10 Noroeste 0 -- -- 83
2019-04-18 08:00:00 6.4 0 Calma 10 Noroeste 0 -- -- 85
2019-04-18 07:00:00 6.5 5 Noroeste 12 Noroeste 0 -- -- 84
2019-04-18 06:00:00 6 3 Noroeste 8 Noroeste 0 -- -- 87
2019-04-18 05:00:00 6.4 0 Calma 5 Noroeste 0 -- -- 88
2019-04-18 04:00:00 6.7 2 Oeste 6 Noroeste 0 -- -- 84
2019-04-18 03:00:00 6.8 3 Oeste 7 Noroeste 0 -- -- 86
2019-04-18 02:00:00 7.1 3 Noroeste 6 Noroeste 0 -- -- 87
2019-04-18 01:00:00 7.6 0 Calma 5 Noroeste 0 -- -- 87
2019-04-18 00:00:00 8.1 2 Noroeste 10 Noroeste 0 -- -- 85
2019-04-17 23:00:00 8.9 4 Norte 7 Noroeste 0 -- -- 85
2019-04-17 22:00:00 10.1 2 Noroeste 5 Sudeste 0 -- -- 82
2019-04-17 21:00:00 11.2 3 Este 18 Este 0 -- -- 78
2019-04-17 20:00:00 12.8 10 Este 23 Este 0 -- -- 70
2019-04-17 19:00:00 15.1 9 Este 21 Este 0 -- -- 59
2019-04-17 18:00:00 17 13 Este 23 Este 0 -- -- 55
2019-04-17 17:00:00 16.5 14 Este 24 Este 0 -- -- 56
2019-04-17 16:00:00 16.5 12 Este 22 Este 0 -- -- 56
2019-04-17 15:00:00 16.3 11 Este 29 Este 0 -- -- 54
2019-04-17 14:00:00 16.3 17 Este 28 Este 0 -- -- 55
2019-04-17 13:00:00 15.7 13 Este 27 Este 0 -- -- 58
2019-04-17 12:00:00 14.4 12 Este 23 Este 0 -- -- 61
2019-04-17 11:00:00 12.5 7 Sudeste 14 Sudeste 0 -- -- 62
2019-04-17 10:00:00 9.7 3 Sudeste 7 Sudeste 0 -- -- 74
2019-04-17 09:00:00 5.7 2 Sur 4 Sudeste 0 -- -- 89
2019-04-17 08:00:00 3 0 Calma -- -- 0 -- -- 95
2019-04-17 07:00:00 3.2 0 Calma 8 Noroeste 0 -- -- 92
2019-04-17 06:00:00 3.8 4 Noroeste 14 Noroeste 0 -- -- 90
2019-04-17 05:00:00 4.6 6 Noroeste 12 Noroeste 0 -- -- 91
2019-04-17 04:00:00 5 3 Oeste 8 Este 0 -- -- 90
2019-04-17 03:00:00 6.4 4 Noroeste 12 Noroeste 0 -- -- 93
2019-04-17 02:00:00 7.2 0 Calma 4 Sudeste 0 -- -- 93
2019-04-17 01:00:00 7.5 0 Calma 4 Este 0 -- -- 90
2019-04-17 00:00:00 7.7 0 Calma 4 Norte 0 -- -- 89
2019-04-16 23:00:00 8 0 Calma 4 Norte 0 -- -- 86
2019-04-16 22:00:00 8.5 2 Noroeste 4 Noroeste 0 -- -- 83
2019-04-16 21:00:00 9 0 Calma 8 Sudeste 0 -- -- 80
2019-04-16 20:00:00 9.6 2 Este 6 Este 0 -- -- 77
2019-04-16 19:00:00 10.1 0 Calma 14 Este 0 -- -- 74
2019-04-16 18:00:00 10.8 9 Este 19 Este 0 -- -- 71
2019-04-16 17:00:00 10.6 4 Este 8 Este 0 -- -- 73
2019-04-16 16:00:00 9.2 3 Sudeste 7 Sur 0 -- -- 78
2019-04-16 15:00:00 8.8 4 Sudeste 9 Este 0 -- -- 81
2019-04-16 14:00:00 8.3 4 Este 8 Sudeste 0 -- -- 83
2019-04-16 13:00:00 8.3 3 Este 6 Este 0 -- -- 87
2019-04-16 12:00:00 8 0 Calma 7 Oeste 0 -- -- 85
2019-04-16 11:00:00 7.7 2 Oeste 12 Este 0 -- -- 88
2019-04-16 10:00:00 7.4 2 Sudeste 6 Oeste 0 -- -- 92
2019-04-16 09:00:00 6.3 5 Noroeste 8 Oeste 0 -- -- 94
2019-04-16 08:00:00 5.5 2 Este 6 Noroeste 0 -- -- 95
2019-04-16 07:00:00 5.1 4 Noroeste 6 Norte 0 -- -- 95
2019-04-16 06:00:00 5 0 Calma 5 Oeste 0 -- -- 94
2019-04-16 05:00:00 4.9 0 Calma 21 Este 0 -- -- 94
2019-04-16 04:00:00 5.6 7 Este 12 Este 0.2 -- -- 95
2019-04-16 03:00:00 5.7 3 Oeste 18 Este 2.4 -- -- 93
2019-04-16 02:00:00 6.4 5 Este 12 Norte 2 -- -- 94
2019-04-16 01:00:00 6.5 0 Calma 10 Norte 0.2 -- -- 90
2019-04-16 00:00:00 6.4 5 Oeste 8 Oeste 0 -- -- 85
2019-04-15 23:00:00 7.2 0 Calma 7 Sudeste 0 -- -- 80
2019-04-15 22:00:00 8.2 3 Sur 13 Este 0 -- -- 77
2019-04-15 21:00:00 9.3 6 Este 15 Este 0 -- -- 76
2019-04-15 20:00:00 10.2 9 Este 22 Este 0 -- -- 72
2019-04-15 19:00:00 11.8 12 Este 21 Este 0 -- -- 67
2019-04-15 18:00:00 13.1 13 Este 22 Este 0 -- -- 61
2019-04-15 17:00:00 13.9 12 Este 24 Este 0 -- -- 57
2019-04-15 16:00:00 13.7 13 Este 27 Este 0 -- -- 57
2019-04-15 15:00:00 14.7 10 Este 27 Este 0 -- -- 54
2019-04-15 14:00:00 14.9 15 Este 29 Este 0 -- -- 55
2019-04-15 13:00:00 13.6 18 Este 28 Este 0 -- -- 54
2019-04-15 12:00:00 13.8 13 Este 22 Este 0 -- -- 53
2019-04-15 11:00:00 12 8 Sudeste 17 Sudeste 0 -- -- 59
2019-04-15 10:00:00 9.8 6 Sudeste 12 Este 0 -- -- 70
2019-04-15 09:00:00 6.3 4 Norte 9 Norte 0 -- -- 89
2019-04-15 08:00:00 3.9 2 Noroeste 6 Nordeste 0 -- -- 93
2019-04-15 07:00:00 3.7 2 Noroeste 7 Oeste 0 -- -- 92
2019-04-15 06:00:00 4.3 3 Noroeste 12 Noroeste 0 -- -- 90
2019-04-15 05:00:00 5.4 6 Noroeste 9 Noroeste 0 -- -- 90
2019-04-15 04:00:00 5.8 0 Calma 6 Noroeste 0 -- -- 89
2019-04-15 03:00:00 5.4 0 Calma 6 Noroeste 0 -- -- 90
2019-04-15 02:00:00 5.4 0 Calma 4 Sur 0 -- -- 88
2019-04-15 01:00:00 6.3 0 Calma 6 Este 0 -- -- 87
2019-04-15 00:00:00 7 5 Noroeste 8 Noroeste 0 -- -- 82
2019-04-14 23:00:00 8 3 Norte 13 Este 0 -- -- 77
2019-04-14 22:00:00 9.1 3 Sudeste 18 Este 0 -- -- 75
2019-04-14 21:00:00 10.9 4 Sudeste 22 Este 0 -- -- 64
2019-04-14 20:00:00 13.3 4 Sudeste 16 Este 0 -- -- 51
2019-04-14 19:00:00 14 7 Este 10 Este 0 -- -- 45
2019-04-14 18:00:00 14.5 6 Este 19 Este 0 -- -- 45
2019-04-14 17:00:00 14.5 4 Sur 17 Este 0 -- -- 48
2019-04-14 16:00:00 13.9 4 Sudeste 22 Este 0 -- -- 52
2019-04-14 15:00:00 12.8 11 Este 26 Este 0 -- -- 48
2019-04-14 14:00:00 12.3 12 Sudeste 27 Sudeste 0 -- -- 45
2019-04-14 13:00:00 13.4 9 Sudeste 17 Sudeste 0 -- -- 40
2019-04-14 12:00:00 13.3 5 Sudoeste 23 Oeste 0 -- -- 29
2019-04-14 11:00:00 11.2 9 Noroeste 37 Noroeste 0 -- -- 35
2019-04-14 10:00:00 7.8 5 Este 22 Noroeste 0 -- -- 37
2019-04-14 09:00:00 5.9 3 Este 7 Oeste 0 -- -- 43
2019-04-14 08:00:00 3.5 3 Oeste 8 Noroeste 0 -- -- 44
2019-04-14 07:00:00 3.4 3 Noroeste 6 Noroeste 0 -- -- 42
2019-04-14 06:00:00 2.6 2 Noroeste 6 Noroeste 0 -- -- 43
2019-04-14 05:00:00 2.8 0 Calma 6 Noroeste 0 -- -- 39
2019-04-14 04:00:00 3 4 Noroeste 8 Noroeste 0 -- -- 37
2019-04-14 03:00:00 3.2 2 Oeste 9 Noroeste 0 -- -- 39
2019-04-14 02:00:00 4.4 5 Noroeste 15 Noroeste 0 -- -- 35
2019-04-14 01:00:00 4.8 3 Oeste 6 Noroeste 0 -- -- 36
2019-04-14 00:00:00 6.1 0 Calma 6 Norte 0 -- -- 33
2019-04-13 23:00:00 7.1 2 Noroeste 8 Este 0 -- -- 29
2019-04-13 22:00:00 9.4 3 Oeste 19 Nordeste 0 -- -- 23
2019-04-13 21:00:00 11 6 Sur 26 Noroeste 0 -- -- 19
2019-04-13 20:00:00 12.3 14 Oeste 37 Norte 0 -- -- 19
2019-04-13 19:00:00 14.2 13 Noroeste 31 Noroeste 0 -- -- 17
2019-04-13 18:00:00 15.7 11 Noroeste 33 Noroeste 0 -- -- 16
2019-04-13 17:00:00 15.8 10 Este 28 Norte 0 -- -- 14
2019-04-13 16:00:00 15.7 8 Sur 34 Oeste 0 -- -- 13
2019-04-13 15:00:00 15.8 8 Oeste 29 Nordeste 0 -- -- 14
2019-04-13 14:00:00 15.2 11 Nordeste 33 Sudoeste 0 -- -- 15
2019-04-13 13:00:00 14.4 9 Norte 26 Oeste 0 -- -- 17
2019-04-13 12:00:00 13.8 8 Nordeste 31 Oeste 0 -- -- 16
2019-04-13 11:00:00 12.4 15 Oeste 37 Oeste 0 -- -- 15
2019-04-13 10:00:00 11.2 15 Oeste 32 Oeste 0 -- -- 18
2019-04-13 09:00:00 8.7 14 Noroeste 33 Noroeste 0 -- -- 26
2019-04-13 08:00:00 4.2 6 Noroeste 21 Noroeste 0 -- -- 32
2019-04-13 07:00:00 2.1 7 Norte 22 Noroeste 0 -- -- 35
2019-04-13 06:00:00 2 3 Este 18 Noroeste 0 -- -- 43
2019-04-13 05:00:00 3.6 10 Noroeste 32 Oeste 0 -- -- 39
2019-04-13 04:00:00 4.1 13 Oeste 42 Noroeste 0 -- -- 40
2019-04-13 03:00:00 4.4 22 Noroeste 38 Oeste 0 -- -- 40
2019-04-13 02:00:00 4.7 14 Noroeste 31 Noroeste 0 -- -- 34
2019-04-13 01:00:00 4 7 Noroeste 16 Noroeste 0 -- -- 38
2019-04-13 00:00:00 4.4 13 Noroeste 23 Norte 0 -- -- 35
2019-04-12 23:00:00 3.6 4 Noroeste 12 Este 0 -- -- 39
2019-04-12 22:00:00 6.1 4 Nordeste 26 Oeste 0 -- -- 35
2019-04-12 21:00:00 8.3 15 Noroeste 37 Sudoeste 0 -- -- 31
2019-04-12 20:00:00 10.4 14 Oeste 27 Oeste 0 -- -- 26
2019-04-12 19:00:00 12 10 Sur 35 Norte 0 -- -- 18
2019-04-12 18:00:00 12.9 17 Noroeste 34 Noroeste 0 -- -- 22
2019-04-12 17:00:00 13.7 14 Oeste 32 Norte 0 -- -- 22
2019-04-12 16:00:00 12.7 16 Norte 40 Norte 0 -- -- 23
2019-04-12 15:00:00 13.2 15 Noroeste 35 Nordeste 0 -- -- 19
2019-04-12 14:00:00 13.2 16 Noroeste 41 Oeste 0 -- -- 16
2019-04-12 13:00:00 12.2 20 Oeste 48 Oeste 0 -- -- 18
2019-04-12 12:00:00 10.9 28 Oeste 48 Oeste 0 -- -- 20
2019-04-12 11:00:00 10.3 28 Oeste 47 Oeste 0 -- -- 23
2019-04-12 10:00:00 10.4 14 Oeste 35 Noroeste 0 -- -- 21
2019-04-12 09:00:00 7.9 20 Oeste 36 Oeste 0 -- -- 23
2019-04-12 08:00:00 7.2 19 Oeste 40 Oeste 0 -- -- 28
2019-04-12 07:00:00 7 19 Oeste 42 Noroeste 0 -- -- 34
2019-04-12 06:00:00 6.7 19 Sudoeste 49 Noroeste 0 -- -- 41
2019-04-12 05:00:00 6.7 27 Oeste 44 Oeste 0 -- -- 44
2019-04-12 04:00:00 6.8 16 Oeste 42 Sudoeste 0 -- -- 53
2019-04-12 03:00:00 6.9 15 Oeste 36 Sudoeste 0 -- -- 56
2019-04-12 02:00:00 6 17 Oeste 31 Sudoeste 0 -- -- 67
2019-04-12 01:00:00 5.9 13 Oeste 30 Oeste 0 -- -- 70
2019-04-12 00:00:00 6.5 13 Oeste 32 Sudoeste 0 -- -- 63
2019-04-11 23:00:00 7.6 15 Oeste 42 Oeste 0 -- -- 54
2019-04-11 22:00:00 7.9 4 Nordeste 36 Sudoeste 0 -- -- 55
2019-04-11 21:00:00 7.9 12 Oeste 41 Sudoeste 0 -- -- 54
2019-04-11 20:00:00 8.5 18 Oeste 46 Noroeste 0 -- -- 52
2019-04-11 19:00:00 9.5 18 Oeste 41 Oeste 0 -- -- 49
2019-04-11 18:00:00 8.9 18 Oeste 46 Noroeste 0 -- -- 48
2019-04-11 17:00:00 9.2 21 Oeste 44 Noroeste 0 -- -- 49
2019-04-11 16:00:00 9.3 16 Oeste 29 Oeste 0 -- -- 52
2019-04-11 15:00:00 8.3 15 Oeste 41 Oeste 0 -- -- 52
2019-04-11 14:00:00 9.2 18 Oeste 43 Oeste 0 -- -- 48
2019-04-11 13:00:00 9.1 16 Oeste 35 Sudoeste 0 -- -- 46
2019-04-11 12:00:00 7.6 14 Oeste 51 Oeste 0 -- -- 48
2019-04-11 11:00:00 7.1 21 Noroeste 39 Noroeste 0 -- -- 46
2019-04-11 10:00:00 7.5 13 Oeste 46 Oeste 0 -- -- 37
2019-04-11 09:00:00 6.1 9 Este 42 Este 0 -- -- 43
2019-04-11 08:00:00 5.7 12 Sudoeste 36 Oeste 0 -- -- 41
2019-04-11 07:00:00 5.2 13 Noroeste 47 Sudoeste 0 -- -- 53
2019-04-11 06:00:00 5.3 10 Oeste 37 Sudoeste 0 -- -- 55
2019-04-11 05:00:00 5.5 15 Sudoeste 46 Sudoeste 0 -- -- 58
2019-04-11 04:00:00 3.8 8 Sudoeste 24 Sudoeste 0 -- -- 81
2019-04-11 03:00:00 4.9 18 Sudoeste 31 Sudoeste 0 -- -- 70
2019-04-11 02:00:00 3.6 3 Norte 12 Nordeste 0.2 -- -- 86
2019-04-11 01:00:00 4.2 3 Sudeste 14 Este 0 -- -- 81
2019-04-11 00:00:00 4.8 6 Este 30 Sudoeste 0 -- -- 75
2019-04-10 23:00:00 5.3 10 Sudoeste 27 Oeste 0 -- -- 68
2019-04-10 22:00:00 5.3 15 Noroeste 27 Oeste 0 -- -- 67
2019-04-10 21:00:00 5.2 20 Oeste 40 Oeste 0 -- -- 69
2019-04-10 20:00:00 5.3 6 Norte 31 Noroeste 0.2 -- -- 74
2019-04-10 19:00:00 8.8 11 Noroeste 42 Oeste 0 -- -- 43
2019-04-10 18:00:00 10.4 11 Oeste 32 Oeste 0 -- -- 42
2019-04-10 17:00:00 10.8 11 Noroeste 33 Sudoeste 0 -- -- 44
2019-04-10 16:00:00 9.3 12 Oeste 36 Oeste 0 -- -- 50
2019-04-10 15:00:00 6.6 26 Oeste 45 Oeste 0 -- -- 73
2019-04-10 14:00:00 8.3 9 Noroeste 32 Oeste 0 -- -- 61
2019-04-10 13:00:00 10.2 15 Oeste 24 Oeste 0 -- -- 45
2019-04-10 12:00:00 10 10 Este 21 Sudeste 0 -- -- 42
2019-04-10 11:00:00 9.2 13 Oeste 32 Oeste 0 -- -- 47
2019-04-10 10:00:00 7.9 9 Noroeste 20 Sudoeste 0 -- -- 50
2019-04-10 09:00:00 3.7 5 Sudeste 14 Este 0 -- -- 68
2019-04-10 08:00:00 0.4 4 Oeste 8 Noroeste 0 -- -- 84
2019-04-10 07:00:00 -0.5 4 Noroeste 9 Norte 0 -- -- 86
2019-04-10 06:00:00 -0.4 3 Nordeste 9 Noroeste 0 -- -- 85
2019-04-10 05:00:00 -0.4 4 Noroeste 8 Norte 0 -- -- 86
2019-04-10 04:00:00 -0.4 0 Calma 5 Oeste 0 -- -- 92
2019-04-10 03:00:00 -0.1 0 Calma 6 Noroeste 0 -- -- 93
2019-04-10 02:00:00 0.7 2 Oeste 10 Sudoeste 0 -- -- 94
2019-04-10 01:00:00 0.8 5 Noroeste 10 Oeste 0.2 -- -- 95
2019-04-10 00:00:00 1.2 3 Noroeste 8 Nordeste 0 -- -- 96
2019-04-09 23:00:00 2 2 Sur 6 Sudoeste 0 -- -- 95
2019-04-09 22:00:00 2.9 3 Oeste 6 Nordeste 0 -- -- 94
2019-04-09 21:00:00 4.1 2 Norte 6 Noroeste 0 -- -- 93
2019-04-09 20:00:00 4.6 3 Sudoeste 6 Este 0 -- -- 91
2019-04-09 19:00:00 4.7 3 Este 8 Este 1.2 -- -- 90
2019-04-09 18:00:00 5.1 6 Este 18 Este 0 -- -- 87
2019-04-09 17:00:00 5.9 5 Este 15 Este 0.2 -- -- 85
2019-04-09 16:00:00 6.9 9 Este 20 Este 0 -- -- 81
2019-04-09 15:00:00 7 6 Sudeste 14 Nordeste 0.4 -- -- 88
2019-04-09 14:00:00 6.6 4 Este 17 Sudeste 2.8 -- -- 80
2019-04-09 13:00:00 10.5 11 Este 22 Este 0 -- -- 59
2019-04-09 12:00:00 10.7 5 Sudeste 13 Sudeste 0 -- -- 60
2019-04-09 11:00:00 8.3 4 Sudoeste 10 Sudeste 0 -- -- 71
2019-04-09 10:00:00 6.8 6 Sudeste 14 Sudeste 0 -- -- 81
2019-04-09 09:00:00 3.5 4 Sudeste 9 Sudeste 0 -- -- 96
2019-04-09 08:00:00 2.2 2 Sudeste 6 Sudeste 0 -- -- 95
2019-04-09 07:00:00 2.4 3 Sudoeste 9 Oeste 1.4 -- -- 93
2019-04-09 06:00:00 3.9 6 Noroeste 27 Noroeste 2.8 -- -- 88
2019-04-09 05:00:00 4.5 3 Noroeste 8 Oeste 0 -- -- 95
2019-04-09 04:00:00 4.7 0 Calma 6 Oeste 0.4 -- -- 95
2019-04-09 03:00:00 4.8 0 Calma 7 Oeste 0 -- -- 94
2019-04-09 02:00:00 4.8 0 Calma 8 Noroeste 0 -- -- 94
2019-04-09 01:00:00 5.1 0 Calma 6 Sudoeste 0 -- -- 94
2019-04-09 00:00:00 5.2 0 Calma 8 Oeste 1.6 -- -- 93
2019-04-08 23:00:00 6 4 Noroeste 12 Noroeste 1.8 -- -- 88
2019-04-08 22:00:00 6.6 4 Noroeste 13 Norte 0.2 -- -- 84
2019-04-08 21:00:00 7.9 4 Oeste 15 Este 0 -- -- 80
2019-04-08 20:00:00 8.7 10 Este 21 Este 0 -- -- 74
2019-04-08 19:00:00 10.3 7 Sur 15 Sudoeste 0 -- -- 62
2019-04-08 18:00:00 11.7 7 Este 20 Este 0 -- -- 57
2019-04-08 17:00:00 11.6 13 Este 26 Sudeste 0 -- -- 56
2019-04-08 16:00:00 11.7 13 Este 23 Este 0 -- -- 56
2019-04-08 15:00:00 12.1 8 Sudeste 26 Este 0 -- -- 53
2019-04-08 14:00:00 12.7 14 Este 27 Este 0 -- -- 50
2019-04-08 13:00:00 13 7 Sudeste 18 Sur 0 -- -- 42
2019-04-08 12:00:00 11.6 8 Este 14 Este 0 -- -- 42
2019-04-08 11:00:00 9.2 9 Oeste 35 Oeste 0 -- -- 50
2019-04-08 10:00:00 6.7 13 Oeste 36 Sudoeste 0 -- -- 61
2019-04-08 09:00:00 4 6 Sudeste 16 Sur 0 -- -- 74
2019-04-08 08:00:00 0.9 3 Nordeste 7 Sudoeste 0 -- -- 87
2019-04-08 07:00:00 0.7 2 Sudeste 8 Este 0 -- -- 89
2019-04-08 06:00:00 0.8 0 Calma 5 Noroeste 0 -- -- 91
2019-04-08 05:00:00 0.5 0 Calma 5 Nordeste 0 -- -- 91
2019-04-08 04:00:00 0.1 3 Noroeste 6 Noroeste 0 -- -- 91
2019-04-08 03:00:00 0.6 2 Este 9 Noroeste 0 -- -- 89
2019-04-08 02:00:00 0.8 3 Oeste 12 Noroeste 0 -- -- 88
2019-04-08 01:00:00 1.3 6 Noroeste 15 Noroeste 0 -- -- 88
2019-04-08 00:00:00 2 2 Noroeste 6 Norte 0 -- -- 87
2019-04-07 23:00:00 3.1 0 Calma 4 Norte 0 -- -- 86
2019-04-07 22:00:00 3.6 2 Noroeste 5 Noroeste 0 -- -- 86
2019-04-07 21:00:00 4.4 2 Sudeste 15 Este 0 -- -- 81
2019-04-07 20:00:00 5.8 5 Este 17 Sudeste 0 -- -- 75
2019-04-07 19:00:00 7.2 13 Este 25 Este 0 -- -- 70
2019-04-07 18:00:00 7.3 12 Este 28 Este 0 -- -- 66
2019-04-07 17:00:00 8.4 14 Este 25 Este 0 -- -- 60
2019-04-07 16:00:00 9.4 8 Este 28 Noroeste 0 -- -- 49
2019-04-07 15:00:00 9.5 5 Nordeste 16 Sudeste 0 -- -- 42
2019-04-07 14:00:00 9 6 Sudeste 21 Noroeste 0 -- -- 47
2019-04-07 13:00:00 9.7 9 Norte 26 Norte 0 -- -- 40
2019-04-07 12:00:00 6.8 9 Nordeste 22 Norte 0.2 -- -- 46
2019-04-07 11:00:00 8.5 5 Este 15 Sur 0 -- -- 42
2019-04-07 10:00:00 5.8 3 Sur 8 Oeste 0 -- -- 57
2019-04-07 09:00:00 1.5 3 Noroeste 9 Noroeste 0 -- -- 78
2019-04-07 08:00:00 -0.7 5 Noroeste 9 Noroeste 0 -- -- 83
2019-04-07 07:00:00 -0.9 4 Noroeste 8 Noroeste 0 -- -- 86
2019-04-07 06:00:00 0.2 8 Noroeste 12 Oeste 0 -- -- 83
2019-04-07 05:00:00 0.2 8 Noroeste 15 Norte 0 -- -- 86
2019-04-07 04:00:00 0.1 3 Oeste 10 Noroeste 0 -- -- 89
2019-04-07 03:00:00 1 0 Calma 7 Noroeste 0 -- -- 90
2019-04-07 02:00:00 1.2 5 Oeste 8 Oeste 0 -- -- 91
2019-04-07 01:00:00 0.9 4 Noroeste 6 Noroeste 0 -- -- 92
2019-04-07 00:00:00 1.9 4 Noroeste 18 Oeste 0 -- -- 90
2019-04-06 23:00:00 2.6 5 Noroeste 11 Noroeste 0 -- -- 89
2019-04-06 22:00:00 3.5 7 Noroeste 14 Noroeste 0.2 -- -- 81
2019-04-06 21:00:00 4.1 4 Noroeste 14 Noroeste 0 -- -- 72
2019-04-06 20:00:00 5 6 Oeste 16 Oeste 0 -- -- 66
2019-04-06 19:00:00 6.5 6 Oeste 21 Oeste 0 -- -- 58
2019-04-06 18:00:00 6 14 Oeste 27 Oeste 0 -- -- 61
2019-04-06 17:00:00 6.7 14 Sudoeste 28 Oeste 0 -- -- 58
2019-04-06 16:00:00 6.8 18 Oeste 31 Oeste 0 -- -- 56
2019-04-06 15:00:00 5.4 16 Oeste 46 Oeste 0 -- -- 64
2019-04-06 14:00:00 7.4 19 Sudoeste 45 Sudoeste 0 -- -- 58
2019-04-06 13:00:00 5.8 13 Oeste 30 Oeste 0 -- -- 74
2019-04-06 12:00:00 4.8 6 Sudoeste 16 Sudoeste 0 -- -- 76
2019-04-06 11:00:00 3.5 5 Sudeste 10 Oeste 0 -- -- 89
2019-04-06 10:00:00 2.1 2 Sur 9 Este 0 -- -- 96
2019-04-06 09:00:00 1.2 4 Sudeste 10 Sudeste 0 -- -- 97
2019-04-06 08:00:00 0.6 3 Nordeste 12 Oeste 0 -- -- 97
2019-04-06 07:00:00 0.4 0 Calma 9 Oeste 0 -- -- 97
2019-04-06 06:00:00 0.5 3 Nordeste 6 Este 0 -- -- 97
2019-04-06 05:00:00 0.6 2 Norte 7 Norte 0 -- -- 97
2019-04-06 04:00:00 0.5 2 Noroeste 6 Sudoeste 0.4 -- -- 97
2019-04-06 03:00:00 0.4 0 Calma 4 Norte 1.6 -- -- 96
2019-04-06 02:00:00 0.5 0 Calma 6 Sudoeste 3.4 -- -- 96
2019-04-06 01:00:00 0.6 2 Oeste 10 Sudoeste 3 -- -- 95
2019-04-06 00:00:00 1.3 2 Oeste 17 Este 4.6 -- -- 91
2019-04-05 23:00:00 3.3 10 Este 19 Este 1.4 -- -- 90
2019-04-05 22:00:00 3.8 4 Oeste 9 Este 1.6 -- -- 91
2019-04-05 21:00:00 5.3 4 Oeste 21 Oeste 0.4 -- -- 79
2019-04-05 20:00:00 6.4 5 Sudoeste 28 Sudoeste 0 -- -- 66
2019-04-05 19:00:00 6.6 9 Sudoeste 23 Sudoeste 0 -- -- 70
2019-04-05 18:00:00 6.8 5 Oeste 15 Noroeste 0 -- -- 66
2019-04-05 17:00:00 7.1 5 Oeste 17 Sudoeste 0 -- -- 66
2019-04-05 16:00:00 6.8 6 Sudoeste 22 Oeste 0 -- -- 67
2019-04-05 15:00:00 7.2 8 Oeste 27 Noroeste 0 -- -- 67
2019-04-05 14:00:00 8.8 6 Sudoeste 15 Oeste 0 -- -- 61
2019-04-05 13:00:00 5.8 6 Noroeste 21 Noroeste 0 -- -- 72
2019-04-05 12:00:00 6.8 10 Noroeste 33 Sudoeste 0 -- -- 57
2019-04-05 11:00:00 8 15 Oeste 33 Oeste 0 -- -- 46
2019-04-05 10:00:00 5.8 8 Este 11 Este 0 -- -- 52
2019-04-05 09:00:00 2.3 2 Sudeste 10 Norte 0 -- -- 67
2019-04-05 08:00:00 0 5 Noroeste 13 Noroeste 0 -- -- 64
2019-04-05 07:00:00 -1.8 3 Noroeste 8 Sudoeste 0 -- -- 81
2019-04-05 06:00:00 -1.2 2 Oeste 8 Norte 0 -- -- 80
2019-04-05 05:00:00 -0.7 4 Norte 8 Noroeste 0 -- -- 78
2019-04-05 04:00:00 -0.5 2 Noroeste 7 Oeste 0 -- -- 83
2019-04-05 03:00:00 -0.5 6 Este 10 Este 0 -- -- 83
2019-04-05 02:00:00 -0.6 3 Este 13 Noroeste 0 -- -- 82
2019-04-05 01:00:00 -0.7 6 Noroeste 12 Noroeste 0 -- -- 81
2019-04-05 00:00:00 -0.4 4 Oeste 8 Noroeste 0 -- -- 82
2019-04-04 23:00:00 0.4 4 Noroeste 10 Noroeste 0 -- -- 79
2019-04-04 22:00:00 1.3 3 Noroeste 9 Norte 0 -- -- 77
2019-04-04 21:00:00 3.2 4 Sudoeste 10 Oeste 0 -- -- 69
2019-04-04 20:00:00 5.7 6 Noroeste 17 Sudoeste 0 -- -- 55
2019-04-04 19:00:00 7.8 8 Sudoeste 21 Sur 0 -- -- 46
2019-04-04 18:00:00 7.7 6 Este 23 Sudeste 0 -- -- 49
2019-04-04 17:00:00 7.8 14 Este 30 Este 0 -- -- 51
2019-04-04 16:00:00 8.1 8 Sudeste 25 Sudeste 0 -- -- 48
2019-04-04 15:00:00 7.8 8 Sudeste 29 Oeste 0 -- -- 42
2019-04-04 14:00:00 5.4 5 Este 14 Noroeste 0 -- -- 44
2019-04-04 13:00:00 5 7 Noroeste 30 Sudoeste 0 -- -- 43
2019-04-04 12:00:00 4.7 16 Oeste 34 Sudoeste 0 -- -- 46
2019-04-04 11:00:00 4.1 15 Sudoeste 25 Oeste 0 -- -- 49
2019-04-04 10:00:00 2.5 7 Sudeste 13 Oeste 0 -- -- 75
2019-04-04 09:00:00 -0.5 3 Noroeste 18 Noroeste 0 -- -- 79
2019-04-04 08:00:00 -1.8 11 Noroeste 14 Oeste 0 -- -- 93
2019-04-04 07:00:00 -1.3 4 Nordeste 9 Este 0 -- -- 95
2019-04-04 06:00:00 -1 5 Este 13 Sudeste 0 -- -- 94
2019-04-04 05:00:00 -0.7 4 Este 22 Este 1 -- -- 94
2019-04-04 04:00:00 0.5 12 Este 22 Este 0.2 -- -- 93
2019-04-04 03:00:00 0.9 0 Calma 10 Este 0 -- -- 96
2019-04-04 02:00:00 1.4 5 Este 10 Este 0 -- -- 96
2019-04-04 01:00:00 1.9 2 Sudeste 9 Sudeste 0 -- -- 97
2019-04-04 00:00:00 2.1 0 Calma 6 Noroeste 0 -- -- 96
2019-04-03 23:00:00 2.1 3 Oeste 9 Este 0 -- -- 96
2019-04-03 22:00:00 2.2 4 Sudeste 13 Nordeste 0 -- -- 94
2019-04-03 21:00:00 2.1 4 Nordeste 13 Sudeste 0.2 -- -- 94
2019-04-03 20:00:00 2.8 8 Oeste 20 Oeste 1.2 -- -- 87
2019-04-03 19:00:00 3.6 6 Sudoeste 24 Sudoeste 1.8 -- -- 86
2019-04-03 18:00:00 5.9 2 Noroeste 16 Oeste 0.6 -- -- 83
2019-04-03 17:00:00 6.9 7 Oeste 25 Sur 0 -- -- 72
2019-04-03 16:00:00 6.1 8 Noroeste 17 Oeste 0 -- -- 81
2019-04-03 15:00:00 6.3 0 Calma 20 Oeste 0.6 -- -- 82
2019-04-03 14:00:00 7.1 5 Oeste 27 Noroeste 0 -- -- 79
2019-04-03 13:00:00 7.8 12 Sur 27 Sur 0 -- -- 72
2019-04-03 12:00:00 7.8 3 Norte 8 Oeste 0.2 -- -- 79
2019-04-03 11:00:00 5.2 4 Nordeste 11 Oeste 2.4 -- -- 95
2019-04-03 10:00:00 4.7 4 Norte 14 Oeste 4 -- -- 95
2019-04-03 09:00:00 4.5 9 Noroeste 14 Oeste 1.2 -- -- 97
2019-04-03 08:00:00 4.4 0 Calma 6 Noroeste 0.4 -- -- 97
2019-04-03 07:00:00 4.5 0 Calma 11 Sudoeste 0.8 -- -- 97
2019-04-03 06:00:00 4.4 0 Calma 5 Nordeste 0 -- -- 97
2019-04-03 05:00:00 4.6 2 Noroeste 5 Oeste 0.6 -- -- 97
2019-04-03 04:00:00 4.7 0 Calma 5 Sudoeste 0 -- -- 97
2019-04-03 03:00:00 4.7 0 Calma 6 Nordeste 0 -- -- 97
2019-04-03 02:00:00 4.7 0 Calma 4 Sudeste 0 -- -- 96
2019-04-03 01:00:00 4.7 2 Este 5 Sudeste 0 -- -- 96
2019-04-03 00:00:00 5.1 0 Calma 5 Sudoeste 0 -- -- 96
2019-04-02 23:00:00 5.3 0 Calma -- -- 0 -- -- 96
2019-04-02 22:00:00 5.5 0 Calma 6 Este 0.6 -- -- 95
2019-04-02 21:00:00 5.8 3 Sudeste 7 Sudoeste 0 -- -- 92
2019-04-02 20:00:00 6.8 2 Este 6 Este 0 -- -- 88
2019-04-02 19:00:00 8.6 4 Sudoeste 12 Noroeste 0 -- -- 80
2019-04-02 18:00:00 6.6 3 Noroeste 9 Sudoeste 0.2 -- -- 87
2019-04-02 17:00:00 4.3 4 Sudeste 17 Este 2 -- -- 95
2019-04-02 16:00:00 4.6 6 Este 14 Este 6 -- -- 93
2019-04-02 15:00:00 7 12 Oeste 24 Sudeste 6.6 -- -- 82
2019-04-02 14:00:00 11 14 Este 24 Este 0 -- -- 64
2019-04-02 13:00:00 10.7 6 Nordeste 24 Este 0 -- -- 68
2019-04-02 12:00:00 11.4 11 Este 17 Este 0 -- -- 62
2019-04-02 11:00:00 9.4 2 Sudeste 7 Este 0 -- -- 71
2019-04-02 10:00:00 7.3 0 Calma 6 Noroeste 0 -- -- 80
2019-04-02 09:00:00 4.6 0 Calma 6 Noroeste 0 -- -- 90
2019-04-02 08:00:00 2.9 3 Noroeste 8 Noroeste 0 -- -- 90
2019-04-02 07:00:00 3.1 3 Noroeste 6 Noroeste 0 -- -- 90
2019-04-02 06:00:00 3.6 3 Noroeste 12 Noroeste 0 -- -- 89
2019-04-02 05:00:00 3.8 0 Calma 5 Noroeste 0 -- -- 91
2019-04-02 04:00:00 3.9 2 Noroeste 5 Norte 0 -- -- 91
2019-04-02 03:00:00 4.2 0 Calma 11 Noroeste 0 -- -- 91
2019-04-02 02:00:00 4.6 6 Noroeste 12 Noroeste 0 -- -- 92
2019-04-02 01:00:00 5.1 3 Noroeste 8 Noroeste 0 -- -- 92
2019-04-02 00:00:00 6.1 0 Calma 4 Noroeste 0 -- -- 94
2019-04-01 23:00:00 6.4 0 Calma 9 Noroeste 0 -- -- 92
2019-04-01 22:00:00 6.6 6 Noroeste 10 Noroeste 0 -- -- 92
2019-04-01 21:00:00 7.1 4 Oeste 16 Noroeste 0 -- -- 90
2019-04-01 20:00:00 7.3 6 Noroeste 12 Oeste 0 -- -- 91
2019-04-01 19:00:00 7.7 3 Noroeste 11 Oeste 0.2 -- -- 92
2019-04-01 18:00:00 7.8 7 Noroeste 21 Oeste 1.6 -- -- 91
2019-04-01 17:00:00 8.6 5 Noroeste 21 Noroeste 1.4 -- -- 84
2019-04-01 16:00:00 11.8 11 Nordeste 27 Nordeste 0 -- -- 57
2019-04-01 15:00:00 15 15 Este 30 Este 0 -- -- 40
2019-04-01 14:00:00 14.5 13 Sudeste 26 Este 0 -- -- 46
2019-04-01 13:00:00 14.4 10 Sudeste 28 Sudeste 0 -- -- 46
2019-04-01 12:00:00 13 12 Este 21 Este 0 -- -- 49
2019-04-01 11:00:00 13 7 Este 15 Este 0 -- -- 49
2019-04-01 10:00:00 9.5 3 Sudeste 6 Este 0 -- -- 59
2019-04-01 09:00:00 5.7 0 Calma 9 Noroeste 0 -- -- 74
2019-04-01 08:00:00 4.5 4 Noroeste 7 Noroeste 0 -- -- 75
2019-04-01 07:00:00 4 4 Noroeste 8 Oeste 0 -- -- 74
2019-04-01 06:00:00 3.3 0 Calma 6 Noroeste 0 -- -- 76
2019-04-01 05:00:00 2.5 3 Noroeste 6 Noroeste 0 -- -- 79
2019-04-01 04:00:00 3 0 Calma 10 Noroeste 0 -- -- 79
2019-04-01 03:00:00 3.8 8 Noroeste 12 Noroeste 0 -- -- 79
2019-04-01 02:00:00 4.1 3 Oeste 8 Nordeste 0 -- -- 78
2019-04-01 01:00:00 4.7 4 Norte 10 Oeste 0 -- -- 78
2019-04-01 00:00:00 5.3 3 Noroeste 11 Noroeste 0 -- -- 75
2019-03-31 23:00:00 5.6 4 Noroeste 10 Noroeste 0 -- -- 74
2019-03-31 22:00:00 6.6 0 Calma 4 Este 0 -- -- 72
2019-03-31 21:00:00 8.1 0 Calma 6 Nordeste 0 -- -- 69
2019-03-31 20:00:00 9.7 5 Este 15 Este 0 -- -- 64
2019-03-31 19:00:00 11.2 8 Este 18 Este 0 -- -- 55
2019-03-31 18:00:00 12.5 10 Este 23 Este 0 -- -- 50
2019-03-31 17:00:00 12 9 Sudeste 25 Este 0 -- -- 54
2019-03-31 16:00:00 12.7 14 Este 27 Este 0 -- -- 52
2019-03-31 15:00:00 12.7 12 Este 28 Sudeste 0 -- -- 49
2019-03-31 14:00:00 13.5 10 Sudeste 25 Sudeste 0 -- -- 33
2019-03-31 13:00:00 13.7 12 Este 22 Este 0 -- -- 32
2019-03-31 12:00:00 11.7 10 Este 20 Este 0 -- -- 40
2019-03-31 11:00:00 9.5 5 Este 13 Este 0 -- -- 44
2019-03-31 10:00:00 7.1 5 Este 8 Este 0 -- -- 48
2019-03-31 09:00:00 2.7 2 Sudoeste 13 Noroeste 0 -- -- 61
2019-03-31 08:00:00 1 6 Noroeste 13 Noroeste 0 -- -- 63
2019-03-31 07:00:00 0.9 7 Noroeste 14 Noroeste 0 -- -- 63
2019-03-31 06:00:00 0.8 2 Oeste 6 Noroeste 0 -- -- 68
2019-03-31 05:00:00 1.1 0 Calma 4 Este 0 -- -- 74
2019-03-31 03:00:00 1.1 3 Noroeste 9 Noroeste 0 -- -- 74
2019-03-31 01:00:00 1.4 3 Noroeste 11 Noroeste 0 -- -- 79
2019-03-31 00:00:00 2.3 8 Noroeste 13 Noroeste 0 -- -- 81
2019-03-30 23:00:00 2.6 7 Noroeste 11 Norte 0 -- -- 80
2019-03-30 22:00:00 3.8 4 Noroeste 9 Noroeste 0 -- -- 74
2019-03-30 21:00:00 5.8 3 Este 8 Sudeste 0 -- -- 74
2019-03-30 20:00:00 7.4 0 Calma 12 Este 0 -- -- 63
2019-03-30 19:00:00 9.6 6 Este 18 Sudeste 0 -- -- 57
2019-03-30 18:00:00 11.8 6 Sudeste 19 Sur 0 -- -- 47
2019-03-30 17:00:00 13 8 Sur 26 Sudeste 0 -- -- 39
2019-03-30 16:00:00 13.7 10 Sudeste 27 Sudeste 0 -- -- 36
2019-03-30 15:00:00 14.6 8 Sudeste 29 Este 0 -- -- 36
2019-03-30 14:00:00 13.8 13 Sudeste 29 Este 0 -- -- 39
2019-03-30 13:00:00 13.4 16 Este 29 Este 0 -- -- 41
2019-03-30 12:00:00 12.3 16 Este 28 Este 0 -- -- 42
2019-03-30 11:00:00 10.7 11 Este 20 Este 0 -- -- 48
2019-03-30 10:00:00 8 8 Sudeste 17 Sudeste 0 -- -- 49
2019-03-30 09:00:00 5 3 Sur 6 Sudeste 0 -- -- 51
2019-03-30 08:00:00 1 0 Calma 4 Norte 0 -- -- 68
2019-03-30 07:00:00 -1.1 0 Calma 10 Oeste 0 -- -- 70
2019-03-30 06:00:00 -0.9 6 Noroeste 11 Noroeste 0 -- -- 72
2019-03-30 05:00:00 -1 3 Oeste 12 Noroeste 0 -- -- 71
2019-03-30 04:00:00 -0.9 4 Noroeste 8 Noroeste 0 -- -- 75
2019-03-30 03:00:00 0 0 Calma 12 Noroeste 0 -- -- 80
2019-03-30 02:00:00 0.3 7 Noroeste 14 Noroeste 0 -- -- 79
2019-03-30 01:00:00 0.6 3 Oeste 20 Noroeste 0 -- -- 78
2019-03-30 00:00:00 1.3 12 Noroeste 16 Noroeste 0 -- -- 78
2019-03-29 23:00:00 1.2 5 Noroeste 12 Noroeste 0 -- -- 78
2019-03-29 22:00:00 2.5 4 Noroeste 10 Noroeste 0 -- -- 73
2019-03-29 21:00:00 4.2 4 Norte 8 Noroeste 0 -- -- 69
2019-03-29 20:00:00 6.1 2 Sudoeste 9 Sudeste 0 -- -- 63
2019-03-29 19:00:00 8.2 5 Este 16 Sudeste 0 -- -- 55
2019-03-29 18:00:00 9.6 7 Sudoeste 15 Sudoeste 0 -- -- 54
2019-03-29 17:00:00 9.8 5 Sudoeste 15 Sudeste 0 -- -- 53
2019-03-29 16:00:00 9.7 8 Este 22 Este 0 -- -- 51
2019-03-29 15:00:00 10.2 9 Este 20 Sudeste 0 -- -- 50
2019-03-29 14:00:00 9.8 8 Sudeste 17 Sudeste 0 -- -- 52
2019-03-29 13:00:00 9.9 4 Noroeste 14 Sudeste 0 -- -- 51
2019-03-29 12:00:00 9.1 3 Este 17 Este 0 -- -- 54
2019-03-29 11:00:00 8.9 12 Este 20 Sudeste 0 -- -- 55
2019-03-29 10:00:00 8.4 7 Sudeste 12 Este 0 -- -- 57
2019-03-29 09:00:00 6.5 5 Sudeste 8 Sudeste 0 -- -- 55
2019-03-29 08:00:00 3.4 0 Calma 9 Noroeste 0 -- -- 70
2019-03-29 07:00:00 0.5 0 Calma 14 Noroeste 0 -- -- 78
2019-03-29 06:00:00 0.9 7 Noroeste 13 Noroeste 0 -- -- 75
2019-03-29 05:00:00 1.2 6 Noroeste 16 Noroeste 0 -- -- 76
2019-03-29 04:00:00 0.9 2 Noroeste 8 Noroeste 0 -- -- 79
2019-03-29 03:00:00 1.5 0 Calma 12 Oeste 0 -- -- 74
2019-03-29 02:00:00 2 2 Noroeste 12 Noroeste 0 -- -- 77
2019-03-29 01:00:00 3.1 8 Noroeste 13 Noroeste 0 -- -- 78
2019-03-29 00:00:00 3.6 5 Noroeste 9 Noroeste 0 -- -- 80
2019-03-28 23:00:00 5.4 0 Calma 7 Este 0 -- -- 77
2019-03-28 22:00:00 6.5 4 Sudeste 15 Este 0 -- -- 73
2019-03-28 21:00:00 6.9 3 Sudeste 6 Este 0 -- -- 71
2019-03-28 20:00:00 7.5 4 Sudeste 19 Este 0 -- -- 67
2019-03-28 19:00:00 9.6 6 Sudeste 18 Sudeste 0 -- -- 58
2019-03-28 18:00:00 12.5 6 Sudeste 19 Este 0 -- -- 43
2019-03-28 17:00:00 13.5 7 Sudeste 23 Sudeste 0 -- -- 37
2019-03-28 16:00:00 14.1 7 Sur 23 Este 0 -- -- 35
2019-03-28 15:00:00 14.5 10 Sudeste 27 Este 0 -- -- 34
2019-03-28 14:00:00 14.3 14 Este 27 Este 0 -- -- 33
2019-03-28 13:00:00 13.7 13 Este 30 Este 0 -- -- 34
2019-03-28 12:00:00 12.8 15 Este 30 Este 0 -- -- 35
2019-03-28 11:00:00 11.4 10 Este 20 Sudeste 0 -- -- 34
2019-03-28 10:00:00 8.9 9 Sudeste 15 Este 0 -- -- 40
2019-03-28 09:00:00 5.8 3 Sudeste 6 Sudeste 0 -- -- 45
2019-03-28 08:00:00 1.5 0 Calma 6 Oeste 0 -- -- 54
2019-03-28 07:00:00 -0.4 2 Noroeste 13 Oeste 0 -- -- 58
2019-03-28 06:00:00 -0.7 4 Noroeste 8 Norte 0 -- -- 58
2019-03-28 05:00:00 -0.2 5 Noroeste 8 Noroeste 0 -- -- 56
2019-03-28 04:00:00 -0.3 3 Oeste 7 Noroeste 0 -- -- 56
2019-03-28 03:00:00 0.5 3 Noroeste 8 Noroeste 0 -- -- 49
2019-03-28 02:00:00 1 0 Calma 8 Noroeste 0 -- -- 54
2019-03-28 01:00:00 1.4 0 Calma 8 Noroeste 0 -- -- 58
2019-03-28 00:00:00 1.8 4 Noroeste 7 Noroeste 0 -- -- 60
2019-03-27 23:00:00 2.8 3 Noroeste 9 Noroeste 0 -- -- 57
2019-03-27 22:00:00 3.8 4 Noroeste 11 Noroeste 0 -- -- 51
2019-03-27 21:00:00 5.6 4 Norte 10 Norte 0 -- -- 47
2019-03-27 20:00:00 7.8 6 Este 20 Este 0 -- -- 42
2019-03-27 19:00:00 9.9 7 Este 21 Sur 0 -- -- 36
2019-03-27 18:00:00 12.8 7 Sudeste 26 Sudeste 0 -- -- 27
2019-03-27 17:00:00 13.8 10 Sudeste 30 Este 0 -- -- 25
2019-03-27 16:00:00 15.1 12 Este 24 Sudeste 0 -- -- 24
2019-03-27 15:00:00 15.2 12 Sudeste 30 Este 0 -- -- 25
2019-03-27 14:00:00 15.2 14 Este 26 Este 0 -- -- 23
2019-03-27 13:00:00 14.6 15 Este 29 Este 0 -- -- 25
2019-03-27 12:00:00 13.7 14 Este 25 Sudeste 0 -- -- 22
2019-03-27 11:00:00 11.9 10 Este 18 Este 0 -- -- 23
2019-03-27 10:00:00 8.9 5 Sudeste 9 Sudeste 0 -- -- 23
2019-03-27 09:00:00 5.4 2 Sur 5 Este 0 -- -- 31
2019-03-27 08:00:00 0.8 2 Sudeste 8 Noroeste 0 -- -- 39
2019-03-27 07:00:00 -1.1 6 Noroeste 12 Noroeste 0 -- -- 37
2019-03-27 06:00:00 -1.1 8 Noroeste 13 Noroeste 0 -- -- 38
2019-03-27 05:00:00 -1 4 Oeste 7 Oeste 0 -- -- 36
2019-03-27 04:00:00 -0.3 3 Oeste 6 Sur 0 -- -- 35
2019-03-27 03:00:00 1 3 Noroeste 10 Norte 0 -- -- 31
2019-03-27 02:00:00 1.7 3 Noroeste 12 Este 0 -- -- 34
2019-03-27 01:00:00 3 3 Este 10 Noroeste 0 -- -- 30
2019-03-27 00:00:00 4.5 6 Norte 25 Noroeste 0 -- -- 28